createdAt,value
2022-10-13T00:00:13.798Z,100832.59
2022-10-13T00:02:41.289Z,100832.50
2022-10-13T00:05:09.446Z,100828.16
2022-10-13T00:07:36.882Z,100833.47
2022-10-13T00:10:04.592Z,100830.00
2022-10-13T00:12:35.028Z,100833.63
2022-10-13T00:15:02.683Z,100831.91
2022-10-13T00:17:30.182Z,100833.63
2022-10-13T00:19:57.806Z,100835.34
2022-10-13T00:22:25.267Z,100832.75
2022-10-13T00:24:52.891Z,100827.53
2022-10-13T00:27:20.348Z,100837.16
2022-10-13T00:29:49.140Z,100832.69
2022-10-13T00:32:16.881Z,100838.94
2022-10-13T00:34:44.547Z,100833.78
2022-10-13T00:37:12.007Z,100835.66
2022-10-13T00:39:39.601Z,100834.81
2022-10-13T00:42:07.916Z,100834.81
2022-10-13T00:45:13.105Z,100836.53
2022-10-13T00:47:41.611Z,100835.06
2022-10-13T00:50:11.419Z,100835.97
2022-10-13T00:52:38.963Z,100836.94
2022-10-13T00:55:07.687Z,100832.56
2022-10-13T00:57:35.156Z,100798.88
2022-10-13T01:00:02.610Z,100826.38
2022-10-13T01:02:33.276Z,100824.59
2022-10-13T01:05:00.704Z,100829.97
2022-10-13T01:07:28.226Z,100831.84
2022-10-13T01:09:55.713Z,100828.66
2022-10-13T01:12:29.775Z,100795.13
2022-10-13T01:14:59.929Z,100760.00
2022-10-13T01:17:29.077Z,100826.16
2022-10-13T01:20:27.100Z,100822.50
2022-10-13T01:23:01.428Z,100824.38
2022-10-13T01:25:40.429Z,100822.56
2022-10-13T01:28:23.881Z,100817.94
2022-10-13T01:30:53.230Z,100813.72
2022-10-13T01:33:25.494Z,100817.25
2022-10-13T01:35:57.933Z,100811.16
2022-10-13T01:38:27.991Z,100808.56
2022-10-13T01:41:01.310Z,100809.53
2022-10-13T01:43:29.706Z,100809.53
2022-10-13T01:46:02.156Z,100797.31
2022-10-13T01:48:29.616Z,100794.06
2022-10-13T01:50:57.147Z,100793.03
2022-10-13T01:53:24.659Z,100791.41
2022-10-13T01:55:52.652Z,100748.25
2022-10-13T01:58:20.129Z,100781.53
2022-10-13T02:00:56.991Z,100779.81
2022-10-13T02:03:29.808Z,100773.63
2022-10-13T02:05:58.728Z,100779.91
2022-10-13T02:08:30.766Z,100740.44
2022-10-13T02:11:00.817Z,100765.81
2022-10-13T02:13:29.374Z,100768.72
2022-10-13T02:15:57.710Z,100774.97
2022-10-13T02:18:27.092Z,100774.13
2022-10-13T02:20:54.562Z,100768.97
2022-10-13T02:23:22.113Z,100761.94
2022-10-13T02:25:49.868Z,100745.84
2022-10-13T02:28:17.576Z,100756.38
2022-10-13T02:30:45.308Z,100706.34
2022-10-13T02:33:13.368Z,100715.47
2022-10-13T02:35:42.324Z,100761.31
2022-10-13T02:38:10.041Z,100687.81
2022-10-13T02:40:37.482Z,100744.22
2022-10-13T02:43:05.055Z,100743.50
2022-10-13T02:45:32.525Z,100758.88
2022-10-13T02:47:59.978Z,100751.06
2022-10-13T02:50:27.451Z,100751.78
2022-10-13T02:52:56.212Z,100744.69
2022-10-13T02:55:23.700Z,100758.13
2022-10-13T02:57:51.164Z,100747.50
2022-10-13T03:00:18.677Z,100756.38
2022-10-13T03:02:46.117Z,100755.38
2022-10-13T03:05:13.546Z,100751.00
2022-10-13T03:07:40.974Z,100750.25
2022-10-13T03:10:10.093Z,100747.81
2022-10-13T03:12:37.523Z,100744.06
2022-10-13T03:15:05.571Z,100749.38
2022-10-13T03:17:33.027Z,100752.09
2022-10-13T03:20:00.459Z,100741.72
2022-10-13T03:22:28.436Z,100741.88
2022-10-13T03:24:55.849Z,100745.47
2022-10-13T03:27:24.597Z,100743.66
2022-10-13T03:29:52.077Z,100755.00
2022-10-13T03:32:19.666Z,100743.59
2022-10-13T03:34:47.259Z,100748.81
2022-10-13T03:37:14.701Z,100738.19
2022-10-13T03:39:42.182Z,100741.78
2022-10-13T03:42:09.629Z,100687.13
2022-10-13T03:44:38.985Z,100746.25
2022-10-13T03:47:06.513Z,100743.59
2022-10-13T03:49:33.932Z,100746.31
2022-10-13T03:52:01.364Z,100745.63
2022-10-13T03:54:28.772Z,100745.94
2022-10-13T03:56:56.195Z,100746.09
2022-10-13T03:59:23.618Z,100744.28
2022-10-13T04:01:52.385Z,100740.72
2022-10-13T04:04:19.850Z,100740.72
2022-10-13T04:06:47.273Z,100750.16
2022-10-13T04:09:14.706Z,100746.63
2022-10-13T04:11:42.136Z,100742.19
2022-10-13T04:14:09.871Z,100746.63
2022-10-13T04:16:39.561Z,100748.44
2022-10-13T04:19:08.363Z,100737.81
2022-10-13T04:21:35.946Z,100738.81
2022-10-13T04:24:03.516Z,100737.91
2022-10-13T04:26:32.107Z,100726.00
2022-10-13T04:28:59.665Z,100733.66
2022-10-13T04:31:27.218Z,100700.47
2022-10-13T04:33:54.689Z,100738.44
2022-10-13T04:36:23.529Z,100732.28
2022-10-13T04:38:50.971Z,100728.66
2022-10-13T04:41:19.282Z,100723.28
2022-10-13T04:43:48.742Z,100721.50
2022-10-13T04:46:18.342Z,100663.94
2022-10-13T04:48:45.915Z,100652.03
2022-10-13T04:51:14.211Z,100721.56
2022-10-13T04:53:42.954Z,100721.56
2022-10-13T04:56:12.341Z,100658.84
2022-10-13T04:58:40.664Z,100501.97
2022-10-13T05:01:08.734Z,100712.81
2022-10-13T05:03:36.199Z,100712.88
2022-10-13T05:06:04.087Z,100709.41
2022-10-13T05:08:33.043Z,100711.19
2022-10-13T05:11:02.226Z,100710.50
2022-10-13T05:13:30.339Z,100630.53
2022-10-13T05:15:57.762Z,100714.03
2022-10-13T05:18:25.236Z,100606.53
2022-10-13T05:20:52.682Z,100711.53
2022-10-13T05:23:20.127Z,100715.16
2022-10-13T05:25:47.551Z,100707.25
2022-10-13T05:28:16.351Z,100561.59
2022-10-13T05:30:43.815Z,100692.13
2022-10-13T05:33:11.253Z,100698.25
2022-10-13T05:35:38.679Z,100690.31
2022-10-13T05:38:06.128Z,100694.69
2022-10-13T05:40:33.570Z,100691.09
2022-10-13T05:43:01.005Z,100694.69
2022-10-13T05:45:30.183Z,100693.66
2022-10-13T05:47:57.672Z,100689.25
2022-10-13T05:50:25.162Z,100691.97
2022-10-13T05:52:52.602Z,100698.09
2022-10-13T05:55:20.029Z,100697.22
2022-10-13T05:57:49.062Z,100699.47
2022-10-13T06:00:17.673Z,100655.59
2022-10-13T06:02:48.002Z,100694.22
2022-10-13T06:05:16.615Z,100689.78
2022-10-13T06:07:44.274Z,100678.84
2022-10-13T06:10:11.833Z,100670.88
2022-10-13T06:12:39.427Z,100608.13
2022-10-13T06:15:07.835Z,100671.50
2022-10-13T06:17:36.808Z,100679.41
2022-10-13T06:20:06.401Z,100672.44
2022-10-13T06:22:34.074Z,100602.03
2022-10-13T06:25:01.562Z,100679.41
2022-10-13T06:27:29.061Z,100677.81
2022-10-13T06:29:56.879Z,100680.56
2022-10-13T06:32:25.008Z,100624.50
2022-10-13T06:34:52.426Z,100680.94
2022-10-13T06:37:24.800Z,100684.22
2022-10-13T06:39:54.676Z,100684.91
2022-10-13T06:42:22.418Z,100647.00
2022-10-13T06:44:50.143Z,100680.84
2022-10-13T06:47:17.691Z,100686.91
2022-10-13T06:49:45.529Z,100681.53
2022-10-13T06:52:13.250Z,100686.84
2022-10-13T06:54:41.992Z,100687.56
2022-10-13T06:57:09.430Z,100684.56
2022-10-13T06:59:36.877Z,100663.94
2022-10-13T07:02:04.341Z,100687.06
2022-10-13T07:04:31.780Z,100685.16
2022-10-13T07:06:59.218Z,100683.19
2022-10-13T07:09:27.198Z,100678.59
2022-10-13T07:11:55.976Z,100681.94
2022-10-13T07:14:23.439Z,100680.78
2022-10-13T07:16:50.859Z,100678.78
2022-10-13T07:19:18.334Z,100678.38
2022-10-13T07:21:45.743Z,100677.38
2022-10-13T07:24:13.253Z,100679.88
2022-10-13T07:26:40.699Z,100646.16
2022-10-13T07:29:09.610Z,100669.25
2022-10-13T07:31:37.057Z,100664.97
2022-10-13T07:34:05.523Z,100661.53
2022-10-13T07:36:33.093Z,100651.22
2022-10-13T07:39:01.286Z,100649.28
2022-10-13T07:41:28.790Z,100656.28
2022-10-13T07:43:56.300Z,100646.38
2022-10-13T07:46:25.320Z,100647.22
2022-10-13T07:48:53.094Z,100652.47
2022-10-13T07:51:20.959Z,100627.66
2022-10-13T07:53:48.626Z,100649.38
2022-10-13T07:56:16.469Z,100646.63
2022-10-13T07:58:45.367Z,100591.38
2022-10-13T08:01:13.309Z,100629.31
2022-10-13T08:03:45.586Z,100637.34
2022-10-13T08:06:16.800Z,100641.16
2022-10-13T08:08:44.236Z,100649.72
2022-10-13T08:11:16.186Z,100608.53
2022-10-13T08:13:46.816Z,100645.19
2022-10-13T08:18:15.609Z,100646.06
2022-10-13T08:20:44.927Z,100650.06
2022-10-13T08:23:12.577Z,100628.53
2022-10-13T08:25:40.371Z,100643.31
2022-10-13T08:28:08.005Z,100631.88
2022-10-13T08:30:35.549Z,100638.16
2022-10-13T08:33:03.142Z,100645.19
2022-10-13T08:35:34.810Z,100648.00
2022-10-13T08:38:03.893Z,100640.91
2022-10-13T08:40:31.308Z,100655.91
2022-10-13T08:43:00.548Z,100643.56
2022-10-13T08:45:45.657Z,100633.53
2022-10-13T08:48:15.153Z,100578.38
2022-10-13T08:50:43.695Z,100586.09
2022-10-13T08:53:14.586Z,100643.78
2022-10-13T08:55:43.140Z,100644.84
2022-10-13T08:58:14.027Z,100639.44
2022-10-13T09:00:42.240Z,100613.97
2022-10-13T09:03:20.753Z,100645.44
2022-10-13T09:05:53.427Z,100589.50
2022-10-13T09:08:22.194Z,100640.81
2022-10-13T09:10:50.119Z,100632.94
2022-10-13T09:13:17.714Z,100633.28
2022-10-13T09:15:45.299Z,100571.50
2022-10-13T09:18:13.700Z,100570.81
2022-10-13T09:20:41.482Z,100631.63
2022-10-13T09:23:18.145Z,100636.78
2022-10-13T09:25:48.284Z,100640.31
2022-10-13T09:28:17.062Z,100638.50
2022-10-13T09:30:46.805Z,100626.91
2022-10-13T09:33:22.237Z,100633.66
2022-10-13T09:35:50.336Z,100627.59
2022-10-13T09:38:20.769Z,100632.91
2022-10-13T09:40:59.408Z,100620.47
2022-10-13T09:43:30.348Z,100621.31
2022-10-13T09:45:57.885Z,100628.69
2022-10-13T09:48:26.988Z,100629.00
2022-10-13T09:50:55.544Z,100621.50
2022-10-13T09:53:26.153Z,100619.25
2022-10-13T09:56:10.814Z,100620.41
2022-10-13T09:58:39.445Z,100607.88
2022-10-13T10:01:07.164Z,100622.75
2022-10-13T10:03:35.459Z,100614.75
2022-10-13T10:06:03.447Z,100545.66
2022-10-13T10:08:33.869Z,100622.16
2022-10-13T10:11:14.855Z,100612.66
2022-10-13T10:13:42.243Z,100610.16
2022-10-13T10:16:12.269Z,100553.72
2022-10-13T10:18:42.186Z,100577.72
2022-10-13T10:21:11.096Z,100557.91
2022-10-13T10:23:43.698Z,100610.16
2022-10-13T10:26:19.398Z,100612.66
2022-10-13T10:29:02.688Z,100580.47
2022-10-13T10:31:40.165Z,100540.81
2022-10-13T10:34:15.488Z,100601.44
2022-10-13T10:36:47.616Z,100571.75
2022-10-13T10:39:21.880Z,100584.16
2022-10-13T10:41:54.205Z,100581.50
2022-10-13T10:44:22.656Z,100554.94
2022-10-13T10:46:50.890Z,100515.25
2022-10-13T10:49:21.306Z,100568.28
2022-10-13T10:51:48.756Z,100557.72
2022-10-13T10:54:30.341Z,100553.34
2022-10-13T10:57:01.579Z,100549.81
2022-10-13T10:59:40.049Z,100541.81
2022-10-13T11:02:18.561Z,100544.38
2022-10-13T11:04:46.613Z,100524.59
2022-10-13T11:07:15.991Z,100533.66
2022-10-13T11:10:02.422Z,100526.13
2022-10-13T11:12:49.821Z,100521.69
2022-10-13T11:15:20.689Z,100511.84
2022-10-13T11:17:48.124Z,100460.56
2022-10-13T11:20:50.390Z,100511.66
2022-10-13T11:23:34.609Z,100502.16
2022-10-13T11:26:31.132Z,100509.47
2022-10-13T11:29:00.134Z,100507.78
2022-10-13T11:31:33.620Z,100503.38
2022-10-13T11:34:03.623Z,100502.53
2022-10-13T11:36:51.248Z,100504.25
2022-10-13T11:40:02.112Z,100494.66
2022-10-13T11:42:45.976Z,100492.91
2022-10-13T11:45:21.580Z,100483.22
2022-10-13T11:48:19.650Z,100488.56
2022-10-13T11:50:49.712Z,100489.72
2022-10-13T11:53:18.561Z,100428.28
2022-10-13T11:55:51.515Z,100487.97
2022-10-13T11:58:20.425Z,100488.94
2022-10-13T12:00:56.417Z,100445.84
2022-10-13T12:03:26.595Z,100485.59
2022-10-13T12:05:53.861Z,100492.00
2022-10-13T12:08:21.604Z,100477.81
2022-10-13T12:10:55.459Z,100409.06
2022-10-13T12:13:24.027Z,100464.50
2022-10-13T12:15:59.835Z,100459.16
2022-10-13T12:18:28.357Z,100414.66
2022-10-13T12:20:56.443Z,100388.63
2022-10-13T12:23:23.947Z,100467.53
2022-10-13T12:25:56.641Z,100447.69
2022-10-13T12:28:25.622Z,100456.78
2022-10-13T12:30:53.506Z,100465.97
2022-10-13T12:33:24.962Z,100473.03
2022-10-13T12:35:52.492Z,100469.41
2022-10-13T12:38:20.367Z,100464.84
2022-10-13T12:40:48.241Z,100463.88
2022-10-13T12:43:17.469Z,100463.13
2022-10-13T12:45:44.926Z,100456.38
2022-10-13T12:48:31.930Z,100457.06
2022-10-13T12:51:18.432Z,100457.34
2022-10-13T12:53:46.591Z,100465.25
2022-10-13T12:56:30.261Z,100458.97
2022-10-13T12:58:57.816Z,100387.84
2022-10-13T13:01:32.578Z,100443.84
2022-10-13T13:04:02.508Z,100423.78
2022-10-13T13:06:35.027Z,100451.25
2022-10-13T13:09:19.728Z,100450.28
2022-10-13T13:11:47.217Z,100450.38
2022-10-13T13:14:37.082Z,100445.06
2022-10-13T13:17:06.194Z,100439.09
2022-10-13T13:19:35.155Z,100438.22
2022-10-13T13:22:03.742Z,100433.66
2022-10-13T13:24:39.739Z,100439.00
2022-10-13T13:27:19.030Z,100432.81
2022-10-13T13:29:46.724Z,100436.53
2022-10-13T13:32:15.349Z,100429.47
2022-10-13T13:34:44.183Z,100431.19
2022-10-13T13:37:16.123Z,100391.53
2022-10-13T13:39:43.566Z,100432.63
2022-10-13T13:42:14.708Z,100428.16
2022-10-13T13:44:42.169Z,100426.22
2022-10-13T13:47:17.734Z,100426.03
2022-10-13T13:49:46.836Z,100422.81
2022-10-13T13:52:14.325Z,100424.31
2022-10-13T13:54:41.762Z,100419.75
2022-10-13T13:57:10.077Z,100372.78
2022-10-13T13:59:37.511Z,100425.00
2022-10-13T14:02:05.095Z,100409.84
2022-10-13T14:04:32.583Z,100406.53
2022-10-13T14:07:01.342Z,100410.91
2022-10-13T14:09:29.032Z,100410.03
2022-10-13T14:11:56.482Z,100406.63
2022-10-13T14:14:23.941Z,100406.63
2022-10-13T14:16:51.356Z,100411.97
2022-10-13T14:19:18.776Z,100411.97
2022-10-13T14:21:46.200Z,100410.25
2022-10-13T14:24:15.028Z,100409.50
2022-10-13T14:26:42.486Z,100409.50
2022-10-13T14:29:09.972Z,100416.63
2022-10-13T14:31:37.391Z,100409.59
2022-10-13T14:34:04.826Z,100404.28
2022-10-13T14:36:32.270Z,100404.47
2022-10-13T14:39:02.797Z,100394.44
2022-10-13T14:41:31.542Z,100399.97
2022-10-13T14:43:59.010Z,100399.16
2022-10-13T14:46:26.476Z,100365.09
2022-10-13T14:48:53.951Z,100394.00
2022-10-13T14:51:21.396Z,100392.19
2022-10-13T14:53:48.871Z,100398.56
2022-10-13T14:56:18.876Z,100323.88
2022-10-13T14:58:47.778Z,100386.13
2022-10-13T15:01:15.374Z,100389.81
2022-10-13T15:03:42.851Z,100387.25
2022-10-13T15:06:13.051Z,100390.59
2022-10-13T15:08:40.304Z,100386.47
2022-10-13T15:11:07.782Z,100354.94
2022-10-13T15:13:35.226Z,100373.84
2022-10-13T15:16:04.694Z,100392.69
2022-10-13T15:18:32.150Z,100400.72
2022-10-13T15:20:59.689Z,100397.22
2022-10-13T15:23:27.361Z,100390.09
2022-10-13T15:25:56.141Z,100332.16
2022-10-13T15:28:23.705Z,100391.13
2022-10-13T15:30:51.223Z,100388.56
2022-10-13T15:33:20.312Z,100393.03
2022-10-13T15:35:48.569Z,100322.00
2022-10-13T15:38:16.062Z,100386.97
2022-10-13T15:40:43.526Z,100390.56
2022-10-13T15:43:10.977Z,100385.34
2022-10-13T15:45:38.433Z,100376.25
2022-10-13T15:48:06.544Z,100396.00
2022-10-13T15:50:35.579Z,100395.16
2022-10-13T15:53:03.078Z,100383.94
2022-10-13T15:55:30.542Z,100396.19
2022-10-13T15:57:58.074Z,100401.50
2022-10-13T16:00:25.567Z,100400.78
2022-10-13T16:02:53.150Z,100398.13
2022-10-13T16:05:20.722Z,100392.88
2022-10-13T16:07:49.485Z,100396.38
2022-10-13T16:10:17.100Z,100345.09
2022-10-13T16:12:49.479Z,100317.66
2022-10-13T16:15:17.840Z,100394.00
2022-10-13T16:17:46.219Z,100395.84
2022-10-13T16:20:13.917Z,100394.13
2022-10-13T16:22:41.325Z,100397.72
2022-10-13T16:25:10.993Z,100400.41
2022-10-13T16:27:43.124Z,100395.16
2022-10-13T16:30:12.204Z,100399.63
2022-10-13T16:32:39.857Z,100400.59
2022-10-13T16:35:08.034Z,100404.94
2022-10-13T16:37:35.530Z,100407.72
2022-10-13T16:40:03.055Z,100407.81
2022-10-13T16:42:31.828Z,100418.47
2022-10-13T16:44:59.271Z,100418.47
2022-10-13T16:47:26.713Z,100421.22
2022-10-13T16:49:54.215Z,100374.56
2022-10-13T16:52:21.694Z,100425.72
2022-10-13T16:54:49.138Z,100412.69
2022-10-13T16:57:16.593Z,100421.59
2022-10-13T16:59:45.352Z,100432.91
2022-10-13T17:02:14.420Z,100424.06
2022-10-13T17:04:41.932Z,100422.47
2022-10-13T17:07:09.500Z,100434.81
2022-10-13T17:09:36.986Z,100421.97
2022-10-13T17:12:04.786Z,100368.28
2022-10-13T17:14:32.238Z,100435.78
2022-10-13T17:17:00.997Z,100449.09
2022-10-13T17:19:28.436Z,100429.59
2022-10-13T17:21:55.859Z,100435.88
2022-10-13T17:24:23.380Z,100429.78
2022-10-13T17:26:51.136Z,100438.63
2022-10-13T17:29:18.798Z,100436.91
2022-10-13T17:31:46.346Z,100435.19
2022-10-13T17:34:15.108Z,100438.63
2022-10-13T17:36:42.561Z,100437.84
2022-10-13T17:39:10.291Z,100346.53
2022-10-13T17:41:38.039Z,100435.28
2022-10-13T17:44:05.672Z,100394.41
2022-10-13T17:46:38.468Z,100321.59
2022-10-13T17:49:06.761Z,100435.38
2022-10-13T17:51:35.520Z,100437.22
2022-10-13T17:54:03.001Z,100437.22
2022-10-13T17:56:30.546Z,100400.50
2022-10-13T17:58:58.046Z,100426.66
2022-10-13T18:01:26.573Z,100417.13
2022-10-13T18:03:55.001Z,100427.59
2022-10-13T18:06:22.968Z,100421.44
2022-10-13T18:08:52.056Z,100423.22
2022-10-13T18:11:20.576Z,100421.53
2022-10-13T18:13:48.070Z,100417.03
2022-10-13T18:16:17.030Z,100371.72
2022-10-13T18:18:45.226Z,100383.88
2022-10-13T18:21:13.331Z,100419.78
2022-10-13T18:23:40.792Z,100418.97
2022-10-13T18:26:11.781Z,100412.78
2022-10-13T18:28:40.810Z,100419.78
2022-10-13T18:31:09.144Z,100418.09
2022-10-13T18:33:36.580Z,100422.53
2022-10-13T18:36:12.653Z,100358.19
2022-10-13T18:38:40.115Z,100416.38
2022-10-13T18:41:08.869Z,100421.72
2022-10-13T18:43:36.308Z,100426.25
2022-10-13T18:46:04.279Z,100419.97
2022-10-13T18:48:31.778Z,100312.38
2022-10-13T18:51:03.490Z,100412.97
2022-10-13T18:53:30.963Z,100372.28
2022-10-13T18:56:03.058Z,100419.25
2022-10-13T18:58:32.165Z,100416.56
2022-10-13T19:01:00.467Z,100415.72
2022-10-13T19:03:27.939Z,100410.50
2022-10-13T19:05:55.572Z,100412.28
2022-10-13T19:08:23.406Z,100389.38
2022-10-13T19:10:51.131Z,100416.69
2022-10-13T19:13:18.784Z,100415.81
2022-10-13T19:15:47.541Z,100406.97
2022-10-13T19:18:15.037Z,100405.53
2022-10-13T19:20:42.507Z,100416.78
2022-10-13T19:23:12.174Z,100417.69
2022-10-13T19:25:41.990Z,100408.00
2022-10-13T19:28:09.536Z,100410.66
2022-10-13T19:30:37.025Z,100408.00
2022-10-13T19:33:05.837Z,100405.34
2022-10-13T19:35:39.533Z,100400.91
2022-10-13T19:38:07.010Z,100404.59
2022-10-13T19:40:36.857Z,100406.31
2022-10-13T19:43:07.566Z,100394.13
2022-10-13T19:45:35.049Z,100401.91
2022-10-13T19:48:02.529Z,100401.09
2022-10-13T19:50:33.369Z,100396.69
2022-10-13T19:53:00.797Z,100403.75
2022-10-13T19:55:28.305Z,100402.88
2022-10-13T19:57:55.749Z,100406.50
2022-10-13T20:00:23.253Z,100402.88
2022-10-13T20:02:50.713Z,100400.31
2022-10-13T20:05:22.000Z,100404.78
2022-10-13T20:07:53.440Z,100407.44
2022-10-13T20:10:20.878Z,100399.44
2022-10-13T20:12:48.375Z,100418.06
2022-10-13T20:15:16.050Z,100411.06
2022-10-13T20:17:43.470Z,100409.25
2022-10-13T20:20:11.389Z,100399.19
2022-10-13T20:22:39.642Z,100416.38
2022-10-13T20:25:09.440Z,100420.00
2022-10-13T20:27:36.935Z,100412.94
2022-10-13T20:30:05.052Z,100417.34
2022-10-13T20:32:32.511Z,100423.47
2022-10-13T20:34:59.937Z,100407.53
2022-10-13T20:37:28.406Z,100367.88
2022-10-13T20:39:57.150Z,100415.59
2022-10-13T20:42:26.076Z,100411.25
2022-10-13T20:44:53.546Z,100415.59
2022-10-13T20:47:21.252Z,100408.56
2022-10-13T20:49:48.943Z,100411.25
2022-10-13T20:52:16.383Z,100406.88
2022-10-13T20:54:43.825Z,100409.53
2022-10-13T20:57:11.260Z,100400.00
2022-10-13T20:59:40.034Z,100367.13
2022-10-13T21:02:07.466Z,100403.34
2022-10-13T21:04:35.618Z,100413.03
2022-10-13T21:07:03.059Z,100412.19
2022-10-13T21:09:30.477Z,100411.34
2022-10-13T21:11:57.910Z,100410.47
2022-10-13T21:14:25.333Z,100414.94
2022-10-13T21:16:54.089Z,100409.63
2022-10-13T21:19:21.699Z,100409.63
2022-10-13T21:21:49.163Z,100406.09
2022-10-13T21:24:16.653Z,100401.66
2022-10-13T21:26:44.060Z,100405.25
2022-10-13T21:29:11.505Z,100395.56
2022-10-13T21:31:38.965Z,100403.44
2022-10-13T21:34:07.771Z,100400.00
2022-10-13T21:36:35.383Z,100407.06
2022-10-13T21:39:03.662Z,100381.03
2022-10-13T21:41:31.199Z,100351.94
2022-10-13T21:43:58.647Z,100343.63
2022-10-13T21:46:26.858Z,100406.19
2022-10-13T21:48:54.685Z,100400.00
2022-10-13T21:51:24.674Z,100400.00
2022-10-13T21:53:53.157Z,100349.88
2022-10-13T21:56:20.730Z,100397.44
2022-10-13T21:58:48.921Z,100325.00
2022-10-13T22:01:16.801Z,100403.63
2022-10-13T22:03:44.369Z,100400.09
2022-10-13T22:06:17.632Z,100399.28
2022-10-13T22:08:48.476Z,100294.72
2022-10-13T22:11:16.156Z,100396.59
2022-10-13T22:13:43.589Z,100389.56
2022-10-13T22:16:12.358Z,100340.78
2022-10-13T22:18:39.805Z,100388.63
2022-10-13T22:21:08.324Z,100382.53
2022-10-13T22:23:35.748Z,100383.41
2022-10-13T22:26:04.485Z,100389.56
2022-10-13T22:28:36.854Z,100383.41
2022-10-13T22:31:05.531Z,100375.63
2022-10-13T22:33:33.448Z,100390.53
2022-10-13T22:36:00.888Z,100384.34
2022-10-13T22:38:28.327Z,100390.63
2022-10-13T22:40:55.769Z,100387.84
2022-10-13T22:43:24.541Z,100379.28
2022-10-13T22:45:52.121Z,100381.66
2022-10-13T22:48:19.571Z,100387.00
2022-10-13T22:50:47.020Z,100387.00
2022-10-13T22:53:14.459Z,100387.00
2022-10-13T22:55:42.000Z,100389.75
2022-10-13T22:58:09.462Z,100382.63
2022-10-13T23:00:38.472Z,100385.28
2022-10-13T23:03:06.151Z,100368.28
2022-10-13T23:05:33.643Z,100386.25
2022-10-13T23:08:01.089Z,100380.94
2022-10-13T23:10:28.523Z,100381.75
2022-10-13T23:12:55.952Z,100332.25
2022-10-13T23:15:23.411Z,100377.41
2022-10-13T23:17:52.189Z,100383.59
2022-10-13T23:20:19.690Z,100382.72
2022-10-13T23:22:47.117Z,100372.09
2022-10-13T23:25:14.645Z,100378.38
2022-10-13T23:27:42.080Z,100372.94
2022-10-13T23:30:10.623Z,100376.53
2022-10-13T23:32:38.073Z,100373.78
2022-10-13T23:35:07.504Z,100370.38
2022-10-13T23:37:34.916Z,100363.25
2022-10-13T23:40:02.403Z,100369.44
2022-10-13T23:42:29.829Z,100359.06
2022-10-13T23:44:57.284Z,100356.00
2022-10-13T23:47:24.710Z,100366.88
2022-10-13T23:49:52.272Z,100370.38
2022-10-13T23:52:21.037Z,100368.66
2022-10-13T23:54:48.771Z,100368.66
2022-10-13T23:57:16.226Z,100361.63
2022-10-13T23:59:43.681Z,100360.69
